sensor_id;sensor_type;location;lat;lon;timestamp;temperature;humidity
70986;DHT22;58645;43.068;25.610;2022-09-13T00:00:43;16.10;81.70
70986;DHT22;58645;43.068;25.610;2022-09-13T00:03:10;16.00;81.90
70986;DHT22;58645;43.068;25.610;2022-09-13T00:05:39;15.90;82.10
70986;DHT22;58645;43.068;25.610;2022-09-13T00:08:06;15.90;82.50
70986;DHT22;58645;43.068;25.610;2022-09-13T00:10:36;15.90;82.70
70986;DHT22;58645;43.068;25.610;2022-09-13T00:13:04;15.80;83.00
70986;DHT22;58645;43.068;25.610;2022-09-13T00:15:30;15.80;83.10
70986;DHT22;58645;43.068;25.610;2022-09-13T00:17:56;15.80;83.10
70986;DHT22;58645;43.068;25.610;2022-09-13T00:20:22;15.70;83.30
70986;DHT22;58645;43.068;25.610;2022-09-13T00:22:47;15.70;83.70
70986;DHT22;58645;43.068;25.610;2022-09-13T00:25:13;15.70;83.80
70986;DHT22;58645;43.068;25.610;2022-09-13T00:27:39;15.70;83.70
70986;DHT22;58645;43.068;25.610;2022-09-13T00:30:06;15.60;83.70
70986;DHT22;58645;43.068;25.610;2022-09-13T00:32:33;15.70;84.00
70986;DHT22;58645;43.068;25.610;2022-09-13T00:35:04;15.70;83.80
70986;DHT22;58645;43.068;25.610;2022-09-13T00:37:30;15.70;83.80
70986;DHT22;58645;43.068;25.610;2022-09-13T00:39:58;15.80;83.50
70986;DHT22;58645;43.068;25.610;2022-09-13T00:42:25;15.80;83.70
70986;DHT22;58645;43.068;25.610;2022-09-13T00:47:35;15.80;83.40
70986;DHT22;58645;43.068;25.610;2022-09-13T00:52:38;15.80;83.60
70986;DHT22;58645;43.068;25.610;2022-09-13T00:55:15;15.80;83.80
70986;DHT22;58645;43.068;25.610;2022-09-13T00:57:43;15.80;83.60
70986;DHT22;58645;43.068;25.610;2022-09-13T01:00:11;15.80;83.60
70986;DHT22;58645;43.068;25.610;2022-09-13T01:02:59;16.20;84.60
70986;DHT22;58645;43.068;25.610;2022-09-13T01:05:32;15.80;84.90
70986;DHT22;58645;43.068;25.610;2022-09-13T01:08:00;15.70;84.90
70986;DHT22;58645;43.068;25.610;2022-09-13T01:10:26;15.70;84.70
70986;DHT22;58645;43.068;25.610;2022-09-13T01:13:05;15.70;84.60
70986;DHT22;58645;43.068;25.610;2022-09-13T01:15:42;15.60;85.40
70986;DHT22;58645;43.068;25.610;2022-09-13T01:18:08;15.60;85.50
70986;DHT22;58645;43.068;25.610;2022-09-13T01:31:45;15.50;86.00
70986;DHT22;58645;43.068;25.610;2022-09-13T01:50:17;15.40;87.70
70986;DHT22;58645;43.068;25.610;2022-09-13T01:53:04;15.40;87.90
70986;DHT22;58645;43.068;25.610;2022-09-13T01:56:02;15.40;87.10
70986;DHT22;58645;43.068;25.610;2022-09-13T02:01:32;15.50;88.30
70986;DHT22;58645;43.068;25.610;2022-09-13T02:04:13;15.50;88.30
70986;DHT22;58645;43.068;25.610;2022-09-13T02:09:49;15.60;87.90
70986;DHT22;58645;43.068;25.610;2022-09-13T02:12:22;15.60;87.90
70986;DHT22;58645;43.068;25.610;2022-09-13T02:17:40;15.80;88.00
70986;DHT22;58645;43.068;25.610;2022-09-13T02:20:23;15.70;87.70
70986;DHT22;58645;43.068;25.610;2022-09-13T02:22:56;15.70;87.80
70986;DHT22;58645;43.068;25.610;2022-09-13T02:25:24;15.80;87.90
70986;DHT22;58645;43.068;25.610;2022-09-13T02:27:53;15.80;87.80
70986;DHT22;58645;43.068;25.610;2022-09-13T02:30:23;15.70;87.50
70986;DHT22;58645;43.068;25.610;2022-09-13T02:33:12;15.70;87.80
70986;DHT22;58645;43.068;25.610;2022-09-13T02:35:51;15.80;88.00
70986;DHT22;58645;43.068;25.610;2022-09-13T02:38:59;15.70;87.50
70986;DHT22;58645;43.068;25.610;2022-09-13T02:41:26;15.70;88.10
70986;DHT22;58645;43.068;25.610;2022-09-13T02:46:38;15.60;87.90
70986;DHT22;58645;43.068;25.610;2022-09-13T02:52:19;15.50;89.60
70986;DHT22;58645;43.068;25.610;2022-09-13T02:58:09;15.50;90.20
70986;DHT22;58645;43.068;25.610;2022-09-13T03:00:28;15.40;90.60
70986;DHT22;58645;43.068;25.610;2022-09-13T03:02:55;15.40;90.30
70986;DHT22;58645;43.068;25.610;2022-09-13T03:05:23;15.40;91.20
70986;DHT22;58645;43.068;25.610;2022-09-13T03:07:49;15.40;91.00
70986;DHT22;58645;43.068;25.610;2022-09-13T03:10:15;15.40;91.00
70986;DHT22;58645;43.068;25.610;2022-09-13T03:15:36;15.40;90.30
70986;DHT22;58645;43.068;25.610;2022-09-13T03:18:50;15.40;90.10
70986;DHT22;58645;43.068;25.610;2022-09-13T03:21:24;15.40;90.70
70986;DHT22;58645;43.068;25.610;2022-09-13T03:24:16;15.30;90.90
70986;DHT22;58645;43.068;25.610;2022-09-13T03:32:34;15.30;91.00
70986;DHT22;58645;43.068;25.610;2022-09-13T03:35:39;15.20;91.20
70986;DHT22;58645;43.068;25.610;2022-09-13T03:38:02;15.20;91.40
70986;DHT22;58645;43.068;25.610;2022-09-13T03:43:24;15.10;91.90
70986;DHT22;58645;43.068;25.610;2022-09-13T03:45:59;15.10;92.00
70986;DHT22;58645;43.068;25.610;2022-09-13T03:48:29;15.10;92.10
70986;DHT22;58645;43.068;25.610;2022-09-13T03:50:55;15.10;92.20
70986;DHT22;58645;43.068;25.610;2022-09-13T03:53:26;15.10;92.40
70986;DHT22;58645;43.068;25.610;2022-09-13T03:55:53;15.10;92.60
70986;DHT22;58645;43.068;25.610;2022-09-13T03:58:20;15.00;92.70
70986;DHT22;58645;43.068;25.610;2022-09-13T04:00:47;15.10;92.90
70986;DHT22;58645;43.068;25.610;2022-09-13T04:03:13;15.00;93.10
70986;DHT22;58645;43.068;25.610;2022-09-13T04:05:39;15.00;93.50
70986;DHT22;58645;43.068;25.610;2022-09-13T04:08:06;15.00;93.20
70986;DHT22;58645;43.068;25.610;2022-09-13T04:10:32;15.00;93.40
70986;DHT22;58645;43.068;25.610;2022-09-13T04:12:59;15.00;93.30
70986;DHT22;58645;43.068;25.610;2022-09-13T04:15:26;15.00;93.70
70986;DHT22;58645;43.068;25.610;2022-09-13T04:17:52;15.00;93.90
70986;DHT22;58645;43.068;25.610;2022-09-13T04:20:18;14.90;94.30
70986;DHT22;58645;43.068;25.610;2022-09-13T04:22:53;15.00;94.40
70986;DHT22;58645;43.068;25.610;2022-09-13T04:25:20;15.00;94.40
70986;DHT22;58645;43.068;25.610;2022-09-13T04:27:47;15.10;94.30
70986;DHT22;58645;43.068;25.610;2022-09-13T04:30:13;15.10;94.30
70986;DHT22;58645;43.068;25.610;2022-09-13T04:32:42;15.10;94.50
70986;DHT22;58645;43.068;25.610;2022-09-13T04:35:09;15.20;94.20
70986;DHT22;58645;43.068;25.610;2022-09-13T04:37:36;15.20;93.90
70986;DHT22;58645;43.068;25.610;2022-09-13T04:40:02;15.20;94.00
70986;DHT22;58645;43.068;25.610;2022-09-13T04:42:28;15.30;93.70
70986;DHT22;58645;43.068;25.610;2022-09-13T04:44:54;15.30;93.30
70986;DHT22;58645;43.068;25.610;2022-09-13T04:47:20;15.30;93.70
70986;DHT22;58645;43.068;25.610;2022-09-13T04:49:46;15.60;93.20
70986;DHT22;58645;43.068;25.610;2022-09-13T04:52:13;16.00;91.30
70986;DHT22;58645;43.068;25.610;2022-09-13T04:54:39;16.50;88.90
70986;DHT22;58645;43.068;25.610;2022-09-13T04:57:14;16.80;87.20
70986;DHT22;58645;43.068;25.610;2022-09-13T04:59:41;17.20;85.50
70986;DHT22;58645;43.068;25.610;2022-09-13T05:02:07;17.50;84.90
70986;DHT22;58645;43.068;25.610;2022-09-13T05:04:34;17.30;84.00
70986;DHT22;58645;43.068;25.610;2022-09-13T05:06:59;17.70;84.30
70986;DHT22;58645;43.068;25.610;2022-09-13T05:09:25;18.80;79.80
70986;DHT22;58645;43.068;25.610;2022-09-13T05:11:51;18.80;77.90
70986;DHT22;58645;43.068;25.610;2022-09-13T05:14:17;19.20;77.90
70986;DHT22;58645;43.068;25.610;2022-09-13T05:16:42;20.40;74.20
70986;DHT22;58645;43.068;25.610;2022-09-13T05:19:12;21.00;70.00
70986;DHT22;58645;43.068;25.610;2022-09-13T05:21:37;21.20;68.40
70986;DHT22;58645;43.068;25.610;2022-09-13T05:24:03;21.60;68.80
70986;DHT22;58645;43.068;25.610;2022-09-13T05:26:30;22.70;64.40
70986;DHT22;58645;43.068;25.610;2022-09-13T05:28:59;23.20;63.20
70986;DHT22;58645;43.068;25.610;2022-09-13T05:31:28;23.50;61.00
70986;DHT22;58645;43.068;25.610;2022-09-13T05:34:00;23.90;58.80
70986;DHT22;58645;43.068;25.610;2022-09-13T05:36:26;24.20;58.40
70986;DHT22;58645;43.068;25.610;2022-09-13T05:38:52;24.50;57.40
70986;DHT22;58645;43.068;25.610;2022-09-13T05:41:19;24.90;55.20
70986;DHT22;58645;43.068;25.610;2022-09-13T05:43:44;25.10;54.00
70986;DHT22;58645;43.068;25.610;2022-09-13T05:46:15;25.30;53.90
70986;DHT22;58645;43.068;25.610;2022-09-13T05:48:41;25.50;53.00
70986;DHT22;58645;43.068;25.610;2022-09-13T05:51:14;25.60;51.80
70986;DHT22;58645;43.068;25.610;2022-09-13T05:53:43;25.10;51.50
70986;DHT22;58645;43.068;25.610;2022-09-13T05:56:11;25.30;51.20
70986;DHT22;58645;43.068;25.610;2022-09-13T05:58:42;25.90;50.80
70986;DHT22;58645;43.068;25.610;2022-09-13T06:01:09;26.20;50.60
70986;DHT22;58645;43.068;25.610;2022-09-13T06:03:35;26.30;49.70
70986;DHT22;58645;43.068;25.610;2022-09-13T06:06:04;25.90;48.40
70986;DHT22;58645;43.068;25.610;2022-09-13T06:08:32;25.90;48.70
70986;DHT22;58645;43.068;25.610;2022-09-13T06:11:04;26.00;49.40
70986;DHT22;58645;43.068;25.610;2022-09-13T06:13:31;26.20;48.50
70986;DHT22;58645;43.068;25.610;2022-09-13T06:15:58;26.60;47.80
70986;DHT22;58645;43.068;25.610;2022-09-13T06:18:27;26.70;47.10
70986;DHT22;58645;43.068;25.610;2022-09-13T06:21:04;26.70;46.00
70986;DHT22;58645;43.068;25.610;2022-09-13T06:23:30;26.20;47.40
70986;DHT22;58645;43.068;25.610;2022-09-13T06:26:09;26.70;46.70
70986;DHT22;58645;43.068;25.610;2022-09-13T06:28:35;26.90;46.00
70986;DHT22;58645;43.068;25.610;2022-09-13T06:31:07;26.70;46.00
70986;DHT22;58645;43.068;25.610;2022-09-13T06:33:34;26.80;45.60
70986;DHT22;58645;43.068;25.610;2022-09-13T06:36:02;27.40;43.90
70986;DHT22;58645;43.068;25.610;2022-09-13T06:38:28;27.40;44.30
70986;DHT22;58645;43.068;25.610;2022-09-13T06:41:09;28.00;44.20
70986;DHT22;58645;43.068;25.610;2022-09-13T06:43:35;28.40;42.70
70986;DHT22;58645;43.068;25.610;2022-09-13T06:46:11;28.60;41.70
70986;DHT22;58645;43.068;25.610;2022-09-13T06:48:39;29.20;41.00
70986;DHT22;58645;43.068;25.610;2022-09-13T06:51:14;29.10;40.50
70986;DHT22;58645;43.068;25.610;2022-09-13T06:53:42;29.60;39.60
70986;DHT22;58645;43.068;25.610;2022-09-13T06:56:11;30.00;38.70
70986;DHT22;58645;43.068;25.610;2022-09-13T06:58:38;29.80;38.30
70986;DHT22;58645;43.068;25.610;2022-09-13T07:03:43;29.10;39.20
70986;DHT22;58645;43.068;25.610;2022-09-13T07:08:41;29.90;37.10
70986;DHT22;58645;43.068;25.610;2022-09-13T07:11:09;30.60;36.60
70986;DHT22;58645;43.068;25.610;2022-09-13T07:13:35;31.00;36.20
70986;DHT22;58645;43.068;25.610;2022-09-13T07:16:03;31.60;34.00
70986;DHT22;58645;43.068;25.610;2022-09-13T07:18:29;31.70;33.20
70986;DHT22;58645;43.068;25.610;2022-09-13T07:21:03;30.70;34.30
70986;DHT22;58645;43.068;25.610;2022-09-13T07:23:35;29.40;36.60
70986;DHT22;58645;43.068;25.610;2022-09-13T07:26:02;29.00;38.80
70986;DHT22;58645;43.068;25.610;2022-09-13T07:31:16;30.60;36.60
70986;DHT22;58645;43.068;25.610;2022-09-13T07:33:43;31.10;34.00
70986;DHT22;58645;43.068;25.610;2022-09-13T07:36:10;31.20;34.30
70986;DHT22;58645;43.068;25.610;2022-09-13T07:38:41;31.40;34.00
70986;DHT22;58645;43.068;25.610;2022-09-13T07:41:25;31.90;34.00
70986;DHT22;58645;43.068;25.610;2022-09-13T07:43:52;32.10;32.80
70986;DHT22;58645;43.068;25.610;2022-09-13T07:46:27;32.10;33.50
70986;DHT22;58645;43.068;25.610;2022-09-13T07:48:57;31.90;33.80
70986;DHT22;58645;43.068;25.610;2022-09-13T07:51:26;31.70;32.60
70986;DHT22;58645;43.068;25.610;2022-09-13T07:53:55;31.50;34.10
70986;DHT22;58645;43.068;25.610;2022-09-13T07:56:23;31.40;34.40
70986;DHT22;58645;43.068;25.610;2022-09-13T07:58:54;31.60;33.50
70986;DHT22;58645;43.068;25.610;2022-09-13T08:01:25;30.30;35.90
70986;DHT22;58645;43.068;25.610;2022-09-13T08:03:52;30.10;35.40
70986;DHT22;58645;43.068;25.610;2022-09-13T08:06:19;29.80;36.30
70986;DHT22;58645;43.068;25.610;2022-09-13T08:08:44;29.90;35.40
70986;DHT22;58645;43.068;25.610;2022-09-13T08:13:50;30.90;35.00
70986;DHT22;58645;43.068;25.610;2022-09-13T08:16:18;30.50;35.40
70986;DHT22;58645;43.068;25.610;2022-09-13T08:18:45;31.20;34.00
70986;DHT22;58645;43.068;25.610;2022-09-13T08:21:11;31.20;33.30
70986;DHT22;58645;43.068;25.610;2022-09-13T08:23:38;30.70;33.20
70986;DHT22;58645;43.068;25.610;2022-09-13T08:26:04;30.10;35.30
70986;DHT22;58645;43.068;25.610;2022-09-13T08:28:33;30.30;33.40
70986;DHT22;58645;43.068;25.610;2022-09-13T08:31:07;30.00;34.00
70986;DHT22;58645;43.068;25.610;2022-09-13T08:33:34;31.00;33.50
70986;DHT22;58645;43.068;25.610;2022-09-13T08:36:00;31.50;31.70
70986;DHT22;58645;43.068;25.610;2022-09-13T08:38:27;31.90;31.30
70986;DHT22;58645;43.068;25.610;2022-09-13T08:41:00;32.50;30.90
70986;DHT22;58645;43.068;25.610;2022-09-13T08:46:09;33.30;29.40
70986;DHT22;58645;43.068;25.610;2022-09-13T08:48:41;33.60;27.80
70986;DHT22;58645;43.068;25.610;2022-09-13T08:51:28;34.10;28.50
70986;DHT22;58645;43.068;25.610;2022-09-13T08:53:55;34.00;28.40
70986;DHT22;58645;43.068;25.610;2022-09-13T09:07:31;33.20;27.90
70986;DHT22;58645;43.068;25.610;2022-09-13T09:12:32;33.60;29.20
70986;DHT22;58645;43.068;25.610;2022-09-13T09:22:54;33.70;26.90
70986;DHT22;58645;43.068;25.610;2022-09-13T09:25:24;31.60;30.00
70986;DHT22;58645;43.068;25.610;2022-09-13T09:27:52;30.20;33.10
70986;DHT22;58645;43.068;25.610;2022-09-13T09:30:19;30.00;34.70
70986;DHT22;58645;43.068;25.610;2022-09-13T09:35:58;30.90;33.40
70986;DHT22;58645;43.068;25.610;2022-09-13T09:41:04;29.60;34.80
70986;DHT22;58645;43.068;25.610;2022-09-13T09:43:38;30.70;33.50
70986;DHT22;58645;43.068;25.610;2022-09-13T09:46:08;30.20;33.20
70986;DHT22;58645;43.068;25.610;2022-09-13T09:48:45;29.10;34.90
70986;DHT22;58645;43.068;25.610;2022-09-13T09:51:14;27.70;37.00
70986;DHT22;58645;43.068;25.610;2022-09-13T09:53:44;26.80;38.60
70986;DHT22;58645;43.068;25.610;2022-09-13T09:56:24;27.20;39.30
70986;DHT22;58645;43.068;25.610;2022-09-13T09:58:52;28.20;37.00
70986;DHT22;58645;43.068;25.610;2022-09-13T10:01:33;29.00;35.30
70986;DHT22;58645;43.068;25.610;2022-09-13T10:06:28;30.30;32.90
70986;DHT22;58645;43.068;25.610;2022-09-13T10:11:58;30.20;31.90
70986;DHT22;58645;43.068;25.610;2022-09-13T10:14:28;29.20;33.30
70986;DHT22;58645;43.068;25.610;2022-09-13T10:17:12;28.10;34.30
70986;DHT22;58645;43.068;25.610;2022-09-13T10:19:39;28.10;35.50
70986;DHT22;58645;43.068;25.610;2022-09-13T10:22:14;29.20;32.00
70986;DHT22;58645;43.068;25.610;2022-09-13T10:24:40;29.60;32.00
70986;DHT22;58645;43.068;25.610;2022-09-13T10:27:37;30.00;33.50
70986;DHT22;58645;43.068;25.610;2022-09-13T10:30:04;31.30;30.90
70986;DHT22;58645;43.068;25.610;2022-09-13T10:32:32;32.60;27.60
70986;DHT22;58645;43.068;25.610;2022-09-13T10:35:07;32.80;25.10
70986;DHT22;58645;43.068;25.610;2022-09-13T10:37:35;31.90;26.10
70986;DHT22;58645;43.068;25.610;2022-09-13T10:40:10;31.50;28.30
70986;DHT22;58645;43.068;25.610;2022-09-13T10:42:53;31.80;27.80
70986;DHT22;58645;43.068;25.610;2022-09-13T10:45:27;32.20;28.40
70986;DHT22;58645;43.068;25.610;2022-09-13T10:48:12;30.80;26.70
70986;DHT22;58645;43.068;25.610;2022-09-13T10:50:38;29.90;27.80
70986;DHT22;58645;43.068;25.610;2022-09-13T10:53:04;28.60;30.20
70986;DHT22;58645;43.068;25.610;2022-09-13T10:55:53;27.90;31.90
70986;DHT22;58645;43.068;25.610;2022-09-13T10:58:19;28.70;33.60
70986;DHT22;58645;43.068;25.610;2022-09-13T11:09:06;28.90;33.20
70986;DHT22;58645;43.068;25.610;2022-09-13T11:23:12;29.10;32.60
70986;DHT22;58645;43.068;25.610;2022-09-13T11:26:05;29.40;32.20
70986;DHT22;58645;43.068;25.610;2022-09-13T11:37:28;29.00;33.30
70986;DHT22;58645;43.068;25.610;2022-09-13T11:40:23;28.40;33.80
70986;DHT22;58645;43.068;25.610;2022-09-13T11:57:13;27.40;34.90
70986;DHT22;58645;43.068;25.610;2022-09-13T11:59:54;27.00;35.60
70986;DHT22;58645;43.068;25.610;2022-09-13T12:02:34;26.70;35.50
70986;DHT22;58645;43.068;25.610;2022-09-13T12:05:18;26.20;36.70
70986;DHT22;58645;43.068;25.610;2022-09-13T12:13:01;25.90;36.80
70986;DHT22;58645;43.068;25.610;2022-09-13T12:15:40;26.90;34.90
70986;DHT22;58645;43.068;25.610;2022-09-13T12:18:13;27.50;34.60
70986;DHT22;58645;43.068;25.610;2022-09-13T12:20:55;28.10;34.30
70986;DHT22;58645;43.068;25.610;2022-09-13T12:23:49;28.70;31.80
70986;DHT22;58645;43.068;25.610;2022-09-13T12:26:40;29.10;31.40
70986;DHT22;58645;43.068;25.610;2022-09-13T12:31:51;27.50;33.30
70986;DHT22;58645;43.068;25.610;2022-09-13T12:34:27;27.10;34.30
70986;DHT22;58645;43.068;25.610;2022-09-13T12:43:20;26.40;34.40
70986;DHT22;58645;43.068;25.610;2022-09-13T12:46:00;27.10;35.00
70986;DHT22;58645;43.068;25.610;2022-09-13T13:02:35;26.80;34.40
70986;DHT22;58645;43.068;25.610;2022-09-13T13:05:06;26.50;35.70
70986;DHT22;58645;43.068;25.610;2022-09-13T13:07:41;26.50;34.80
70986;DHT22;58645;43.068;25.610;2022-09-13T13:10:25;26.10;35.10
70986;DHT22;58645;43.068;25.610;2022-09-13T13:12:52;25.90;35.80
70986;DHT22;58645;43.068;25.610;2022-09-13T13:17:51;25.70;36.60
70986;DHT22;58645;43.068;25.610;2022-09-13T13:26:07;25.80;36.10
70986;DHT22;58645;43.068;25.610;2022-09-13T14:00:05;25.00;37.60
70986;DHT22;58645;43.068;25.610;2022-09-13T14:05:46;24.80;37.90
70986;DHT22;58645;43.068;25.610;2022-09-13T14:21:41;24.10;40.90
70986;DHT22;58645;43.068;25.610;2022-09-13T14:24:25;24.10;41.20
70986;DHT22;58645;43.068;25.610;2022-09-13T14:26:56;24.10;41.10
70986;DHT22;58645;43.068;25.610;2022-09-13T14:29:25;24.00;41.10
70986;DHT22;58645;43.068;25.610;2022-09-13T14:31:54;23.90;41.90
70986;DHT22;58645;43.068;25.610;2022-09-13T14:34:27;23.90;42.10
70986;DHT22;58645;43.068;25.610;2022-09-13T14:36:59;23.90;42.20
70986;DHT22;58645;43.068;25.610;2022-09-13T14:39:26;23.90;42.40
70986;DHT22;58645;43.068;25.610;2022-09-13T14:42:12;23.60;42.60
70986;DHT22;58645;43.068;25.610;2022-09-13T14:44:43;23.60;43.10
70986;DHT22;58645;43.068;25.610;2022-09-13T14:47:23;23.50;43.40
70986;DHT22;58645;43.068;25.610;2022-09-13T14:50:01;23.60;43.00
70986;DHT22;58645;43.068;25.610;2022-09-13T14:52:35;23.60;43.00
70986;DHT22;58645;43.068;25.610;2022-09-13T14:55:15;23.70;43.00
70986;DHT22;58645;43.068;25.610;2022-09-13T14:57:47;23.60;42.80
70986;DHT22;58645;43.068;25.610;2022-09-13T15:00:19;23.60;42.60
70986;DHT22;58645;43.068;25.610;2022-09-13T15:02:49;23.60;42.70
70986;DHT22;58645;43.068;25.610;2022-09-13T15:05:18;23.60;42.50
70986;DHT22;58645;43.068;25.610;2022-09-13T15:07:44;23.50;42.20
70986;DHT22;58645;43.068;25.610;2022-09-13T15:15:38;23.40;42.20
70986;DHT22;58645;43.068;25.610;2022-09-13T15:18:28;23.30;42.30
70986;DHT22;58645;43.068;25.610;2022-09-13T15:20:58;23.30;41.70
70986;DHT22;58645;43.068;25.610;2022-09-13T15:23:31;23.30;41.30
70986;DHT22;58645;43.068;25.610;2022-09-13T15:26:08;23.40;40.80
70986;DHT22;58645;43.068;25.610;2022-09-13T15:31:11;23.50;40.20
70986;DHT22;58645;43.068;25.610;2022-09-13T15:33:44;23.40;40.10
70986;DHT22;58645;43.068;25.610;2022-09-13T15:36:13;23.40;40.10
70986;DHT22;58645;43.068;25.610;2022-09-13T15:39:03;23.30;40.20
70986;DHT22;58645;43.068;25.610;2022-09-13T15:41:39;23.30;40.50
70986;DHT22;58645;43.068;25.610;2022-09-13T15:44:07;23.20;40.80
70986;DHT22;58645;43.068;25.610;2022-09-13T15:46:48;23.20;40.60
70986;DHT22;58645;43.068;25.610;2022-09-13T15:49:19;23.10;41.20
70986;DHT22;58645;43.068;25.610;2022-09-13T15:51:45;23.00;41.50
70986;DHT22;58645;43.068;25.610;2022-09-13T15:54:14;22.90;41.70
70986;DHT22;58645;43.068;25.610;2022-09-13T15:56:42;22.90;42.00
70986;DHT22;58645;43.068;25.610;2022-09-13T15:59:16;22.80;41.90
70986;DHT22;58645;43.068;25.610;2022-09-13T16:01:43;22.70;42.40
70986;DHT22;58645;43.068;25.610;2022-09-13T16:04:10;22.60;42.90
70986;DHT22;58645;43.068;25.610;2022-09-13T16:06:36;22.40;43.10
70986;DHT22;58645;43.068;25.610;2022-09-13T16:09:06;22.30;43.60
70986;DHT22;58645;43.068;25.610;2022-09-13T16:11:35;22.30;44.00
70986;DHT22;58645;43.068;25.610;2022-09-13T16:14:01;22.10;44.00
70986;DHT22;58645;43.068;25.610;2022-09-13T16:16:27;22.10;44.40
70986;DHT22;58645;43.068;25.610;2022-09-13T16:18:53;22.00;44.60
70986;DHT22;58645;43.068;25.610;2022-09-13T16:21:18;21.90;45.30
70986;DHT22;58645;43.068;25.610;2022-09-13T16:23:44;21.80;45.50
70986;DHT22;58645;43.068;25.610;2022-09-13T16:26:10;21.70;45.70
70986;DHT22;58645;43.068;25.610;2022-09-13T16:28:35;21.50;46.00
70986;DHT22;58645;43.068;25.610;2022-09-13T16:31:01;21.40;46.80
70986;DHT22;58645;43.068;25.610;2022-09-13T16:33:27;21.20;46.90
70986;DHT22;58645;43.068;25.610;2022-09-13T16:35:53;21.10;47.30
70986;DHT22;58645;43.068;25.610;2022-09-13T16:38:18;21.00;47.70
70986;DHT22;58645;43.068;25.610;2022-09-13T16:40:44;20.90;48.10
70986;DHT22;58645;43.068;25.610;2022-09-13T16:43:10;20.90;48.50
70986;DHT22;58645;43.068;25.610;2022-09-13T16:45:38;20.80;48.60
70986;DHT22;58645;43.068;25.610;2022-09-13T16:48:05;20.70;49.30
70986;DHT22;58645;43.068;25.610;2022-09-13T16:50:31;20.60;49.20
70986;DHT22;58645;43.068;25.610;2022-09-13T16:52:57;20.50;49.50
70986;DHT22;58645;43.068;25.610;2022-09-13T16:55:23;20.50;49.80
70986;DHT22;58645;43.068;25.610;2022-09-13T16:57:51;20.40;50.00
70986;DHT22;58645;43.068;25.610;2022-09-13T17:00:17;20.30;50.20
70986;DHT22;58645;43.068;25.610;2022-09-13T17:02:45;20.20;50.40
70986;DHT22;58645;43.068;25.610;2022-09-13T17:05:11;20.20;50.80
70986;DHT22;58645;43.068;25.610;2022-09-13T17:07:38;20.10;51.00
70986;DHT22;58645;43.068;25.610;2022-09-13T17:10:05;20.00;51.00
70986;DHT22;58645;43.068;25.610;2022-09-13T17:12:32;20.00;51.10
70986;DHT22;58645;43.068;25.610;2022-09-13T17:14:58;19.90;51.60
70986;DHT22;58645;43.068;25.610;2022-09-13T17:17:24;19.90;51.40
70986;DHT22;58645;43.068;25.610;2022-09-13T17:19:50;19.80;51.90
70986;DHT22;58645;43.068;25.610;2022-09-13T17:22:17;19.90;52.50
70986;DHT22;58645;43.068;25.610;2022-09-13T17:24:43;19.80;52.50
70986;DHT22;58645;43.068;25.610;2022-09-13T17:27:09;19.70;52.80
70986;DHT22;58645;43.068;25.610;2022-09-13T17:29:35;19.60;53.10
70986;DHT22;58645;43.068;25.610;2022-09-13T17:32:03;19.60;53.50
70986;DHT22;58645;43.068;25.610;2022-09-13T17:34:29;19.50;53.40
70986;DHT22;58645;43.068;25.610;2022-09-13T17:36:56;19.50;53.50
70986;DHT22;58645;43.068;25.610;2022-09-13T17:39:22;19.40;53.30
70986;DHT22;58645;43.068;25.610;2022-09-13T17:41:48;19.30;53.40
70986;DHT22;58645;43.068;25.610;2022-09-13T17:44:15;19.30;53.50
70986;DHT22;58645;43.068;25.610;2022-09-13T17:46:41;19.20;53.20
70986;DHT22;58645;43.068;25.610;2022-09-13T17:49:07;19.10;53.50
70986;DHT22;58645;43.068;25.610;2022-09-13T17:51:33;19.10;53.30
70986;DHT22;58645;43.068;25.610;2022-09-13T17:54:02;19.10;53.40
70986;DHT22;58645;43.068;25.610;2022-09-13T17:56:37;19.00;53.50
70986;DHT22;58645;43.068;25.610;2022-09-13T17:59:23;19.00;53.50
70986;DHT22;58645;43.068;25.610;2022-09-13T18:01:50;18.90;53.90
70986;DHT22;58645;43.068;25.610;2022-09-13T18:04:18;18.90;54.30
70986;DHT22;58645;43.068;25.610;2022-09-13T18:06:45;18.80;54.30
70986;DHT22;58645;43.068;25.610;2022-09-13T18:09:11;18.70;54.70
70986;DHT22;58645;43.068;25.610;2022-09-13T18:11:38;18.70;55.20
70986;DHT22;58645;43.068;25.610;2022-09-13T18:14:09;18.60;56.20
70986;DHT22;58645;43.068;25.610;2022-09-13T18:16:35;18.50;56.70
70986;DHT22;58645;43.068;25.610;2022-09-13T18:19:02;18.50;56.90
70986;DHT22;58645;43.068;25.610;2022-09-13T18:21:28;18.40;57.40
70986;DHT22;58645;43.068;25.610;2022-09-13T18:23:57;18.20;58.10
70986;DHT22;58645;43.068;25.610;2022-09-13T18:26:24;18.10;59.20
70986;DHT22;58645;43.068;25.610;2022-09-13T18:28:54;18.00;60.20
70986;DHT22;58645;43.068;25.610;2022-09-13T18:31:21;17.90;60.90
70986;DHT22;58645;43.068;25.610;2022-09-13T18:34:00;17.80;61.10
70986;DHT22;58645;43.068;25.610;2022-09-13T18:36:27;17.80;61.20
70986;DHT22;58645;43.068;25.610;2022-09-13T18:38:55;17.70;61.80
70986;DHT22;58645;43.068;25.610;2022-09-13T18:41:22;17.70;62.60
70986;DHT22;58645;43.068;25.610;2022-09-13T18:43:50;17.60;63.00
70986;DHT22;58645;43.068;25.610;2022-09-13T18:46:18;17.40;63.40
70986;DHT22;58645;43.068;25.610;2022-09-13T18:48:47;17.40;63.80
70986;DHT22;58645;43.068;25.610;2022-09-13T18:51:18;17.30;64.40
70986;DHT22;58645;43.068;25.610;2022-09-13T18:53:45;17.20;64.70
70986;DHT22;58645;43.068;25.610;2022-09-13T18:56:13;17.10;64.70
70986;DHT22;58645;43.068;25.610;2022-09-13T18:58:40;17.00;64.40
70986;DHT22;58645;43.068;25.610;2022-09-13T19:01:09;17.00;64.30
70986;DHT22;58645;43.068;25.610;2022-09-13T19:03:37;17.00;63.50
70986;DHT22;58645;43.068;25.610;2022-09-13T19:06:15;17.00;63.40
70986;DHT22;58645;43.068;25.610;2022-09-13T19:08:42;17.00;63.30
70986;DHT22;58645;43.068;25.610;2022-09-13T19:11:08;17.00;63.60
70986;DHT22;58645;43.068;25.610;2022-09-13T19:13:35;17.00;64.20
70986;DHT22;58645;43.068;25.610;2022-09-13T19:16:03;17.00;64.40
70986;DHT22;58645;43.068;25.610;2022-09-13T19:18:30;16.90;65.40
70986;DHT22;58645;43.068;25.610;2022-09-13T19:21:11;16.80;66.10
70986;DHT22;58645;43.068;25.610;2022-09-13T19:23:42;16.60;66.40
70986;DHT22;58645;43.068;25.610;2022-09-13T19:26:14;16.60;67.00
70986;DHT22;58645;43.068;25.610;2022-09-13T19:28:48;16.50;67.90
70986;DHT22;58645;43.068;25.610;2022-09-13T19:31:17;16.50;68.30
70986;DHT22;58645;43.068;25.610;2022-09-13T19:33:43;16.40;68.80
70986;DHT22;58645;43.068;25.610;2022-09-13T19:36:19;16.40;69.50
70986;DHT22;58645;43.068;25.610;2022-09-13T19:38:48;16.30;69.60